createdAt,value
2018-05-12T00:00:48.099Z,15.63
2018-05-12T00:03:15.626Z,14.90
2018-05-12T00:05:43.997Z,15.40
2018-05-12T00:08:12.301Z,14.53
2018-05-12T00:10:39.899Z,15.30
2018-05-12T00:13:07.449Z,15.87
2018-05-12T00:15:34.975Z,15.77
2018-05-12T00:18:02.557Z,15.90
2018-05-12T00:20:30.136Z,15.33
2018-05-12T00:22:57.681Z,15.20
2018-05-12T00:25:25.282Z,15.13
2018-05-12T00:27:53.545Z,15.57
2018-05-12T00:30:21.112Z,15.33
2018-05-12T00:32:48.729Z,15.37
2018-05-12T00:35:16.315Z,15.33
2018-05-12T00:37:44.676Z,16.00
2018-05-12T00:40:12.284Z,15.20
2018-05-12T00:42:39.832Z,15.57
2018-05-12T00:45:07.411Z,14.33
2018-05-12T00:47:35.748Z,16.23
2018-05-12T00:50:03.349Z,16.63
2018-05-12T00:52:31.725Z,16.90
2018-05-12T00:54:59.301Z,15.40
2018-05-12T00:57:26.924Z,16.50
2018-05-12T00:59:54.469Z,16.07
2018-05-12T01:02:21.996Z,16.37
2018-05-12T01:04:49.577Z,17.07
2018-05-12T01:07:17.093Z,16.17
2018-05-12T01:09:45.785Z,15.13
2018-05-12T01:12:14.142Z,15.47
2018-05-12T01:14:41.731Z,16.17
2018-05-12T01:17:09.270Z,15.93
2018-05-12T01:19:37.730Z,16.00
2018-05-12T01:22:05.361Z,16.03
2018-05-12T01:24:32.906Z,15.90
2018-05-12T01:27:00.473Z,16.47
2018-05-12T01:29:28.030Z,16.77
2018-05-12T01:31:55.543Z,16.33
2018-05-12T01:34:23.078Z,16.37
2018-05-12T01:36:50.630Z,17.80
2018-05-12T01:39:18.178Z,16.63
2018-05-12T01:41:45.729Z,17.30
2018-05-12T01:44:13.265Z,17.33
2018-05-12T01:46:42.217Z,17.50
2018-05-12T01:49:09.750Z,17.23
2018-05-12T01:51:37.292Z,17.83
2018-05-12T01:54:04.852Z,17.77
2018-05-12T01:56:32.422Z,18.60
2018-05-12T01:59:00.004Z,18.37
2018-05-12T02:01:27.654Z,17.83
2018-05-12T02:03:55.245Z,18.10
2018-05-12T02:06:22.820Z,18.43
2018-05-12T02:08:50.369Z,17.50
2018-05-12T02:11:18.742Z,17.80
2018-05-12T02:13:46.277Z,18.60
2018-05-12T02:16:13.818Z,18.20
2018-05-12T02:18:41.386Z,18.23
2018-05-12T02:21:08.966Z,18.40
2018-05-12T02:23:36.516Z,17.97
2018-05-12T02:26:04.193Z,18.53
2018-05-12T02:28:31.757Z,18.63
2018-05-12T02:30:59.307Z,19.03
2018-05-12T02:33:27.692Z,18.23
2018-05-12T02:35:55.222Z,19.33
2018-05-12T02:38:22.773Z,20.40
2018-05-12T02:40:50.305Z,19.47
2018-05-12T02:43:17.836Z,19.53
2018-05-12T02:45:45.387Z,20.07
2018-05-12T02:48:12.941Z,19.57
2018-05-12T02:50:40.545Z,19.60
2018-05-12T02:53:08.090Z,19.83
2018-05-12T02:55:36.423Z,19.10
2018-05-12T02:58:03.958Z,18.97
2018-05-12T03:00:32.315Z,19.27
2018-05-12T03:02:59.850Z,17.57
2018-05-12T03:05:27.704Z,19.13
2018-05-12T03:07:56.051Z,16.90
2018-05-12T03:10:23.640Z,18.87
2018-05-12T03:12:51.176Z,19.27
2018-05-12T03:15:18.767Z,19.43
2018-05-12T03:17:46.298Z,18.03
2018-05-12T03:20:13.853Z,18.23
2018-05-12T03:22:41.447Z,17.80
2018-05-12T03:25:09.042Z,17.30
2018-05-12T03:27:37.430Z,17.57
2018-05-12T03:30:05.715Z,17.03
2018-05-12T03:32:33.287Z,17.87
2018-05-12T03:35:00.834Z,17.87
2018-05-12T03:37:28.377Z,18.00
2018-05-12T03:39:56.659Z,18.90
2018-05-12T03:42:24.974Z,18.57
2018-05-12T03:44:52.495Z,19.03
2018-05-12T03:47:20.825Z,19.27
2018-05-12T03:49:48.371Z,18.63
2018-05-12T03:52:15.948Z,20.07
2018-05-12T03:54:43.503Z,20.43
2018-05-12T03:57:11.062Z,20.13
2018-05-12T03:59:38.658Z,20.60
2018-05-12T04:02:06.259Z,18.83
2018-05-12T04:04:45.669Z,20.47
2018-05-12T04:07:24.854Z,20.10
2018-05-12T04:10:04.290Z,20.60
2018-05-12T04:12:39.747Z,19.63
2018-05-12T04:15:07.394Z,20.77
2018-05-12T04:17:34.947Z,21.03
2018-05-12T04:20:02.568Z,19.70
2018-05-12T04:22:30.132Z,19.30
2018-05-12T04:24:57.679Z,20.47
2018-05-12T04:27:26.247Z,20.00
2018-05-12T04:29:54.668Z,20.63
2018-05-12T04:32:22.285Z,20.20
2018-05-12T04:34:49.925Z,19.03
2018-05-12T04:37:17.473Z,20.17
2018-05-12T04:39:45.056Z,21.50
2018-05-12T04:42:12.578Z,20.93
2018-05-12T04:44:40.172Z,21.90
2018-05-12T04:47:07.721Z,21.53
2018-05-12T04:49:35.254Z,22.07
2018-05-12T04:52:02.802Z,22.27
2018-05-12T04:54:30.350Z,21.20
2018-05-12T04:56:58.773Z,22.90
2018-05-12T04:59:26.313Z,21.90
2018-05-12T05:01:53.876Z,22.13
2018-05-12T05:04:21.431Z,22.37
2018-05-12T05:06:48.992Z,21.73
2018-05-12T05:09:16.525Z,18.43
2018-05-12T05:11:44.830Z,21.63
2018-05-12T05:14:12.390Z,21.67
2018-05-12T05:16:39.939Z,21.57
2018-05-12T05:19:08.534Z,22.30
2018-05-12T05:21:36.081Z,22.93
2018-05-12T05:24:03.623Z,21.53
2018-05-12T05:26:31.986Z,22.47
2018-05-12T05:28:59.580Z,21.87
2018-05-12T05:31:27.101Z,21.13
2018-05-12T05:33:54.697Z,21.67
2018-05-12T05:36:22.269Z,24.53
2018-05-12T05:38:49.927Z,24.07
2018-05-12T05:41:17.938Z,25.03
2018-05-12T05:43:45.511Z,25.10
2018-05-12T05:46:13.044Z,23.67
2018-05-12T05:48:40.590Z,24.90
2018-05-12T05:51:08.175Z,29.37
2018-05-12T05:53:35.698Z,25.77
2018-05-12T05:56:03.261Z,25.70
2018-05-12T05:58:30.904Z,27.57
2018-05-12T06:00:58.477Z,28.83
2018-05-12T06:03:27.317Z,27.20
2018-05-12T06:05:54.866Z,29.43
2018-05-12T06:08:22.378Z,28.73
2018-05-12T06:10:49.917Z,29.00
2018-05-12T06:13:18.227Z,26.50
2018-05-12T06:15:45.790Z,30.20
2018-05-12T06:18:13.406Z,29.23
2018-05-12T06:20:41.790Z,29.03
2018-05-12T06:23:10.183Z,23.60
2018-05-12T06:25:37.781Z,30.17
2018-05-12T06:28:05.330Z,30.20
2018-05-12T06:30:32.882Z,32.50
2018-05-12T06:33:00.433Z,30.77
2018-05-12T06:35:27.955Z,29.70
2018-05-12T06:37:55.543Z,29.33
2018-05-12T06:40:23.841Z,29.80
2018-05-12T06:42:51.381Z,28.23
2018-05-12T06:45:18.904Z,28.50
2018-05-12T06:47:46.438Z,25.73
2018-05-12T06:50:13.966Z,28.33
2018-05-12T06:52:42.243Z,26.40
2018-05-12T06:55:09.798Z,29.53
2018-05-12T06:57:37.333Z,30.03
2018-05-12T07:00:04.917Z,26.80
2018-05-12T07:02:32.463Z,28.47
2018-05-12T07:05:00.807Z,24.10
2018-05-12T07:07:28.404Z,28.47
2018-05-12T07:09:57.295Z,27.20
2018-05-12T07:12:25.667Z,28.97
2018-05-12T07:14:53.151Z,26.63
2018-05-12T07:17:20.700Z,27.07
2018-05-12T07:19:48.476Z,27.97
2018-05-12T07:22:16.052Z,27.90
2018-05-12T07:24:43.606Z,26.07
2018-05-12T07:27:11.175Z,26.67
2018-05-12T07:29:38.821Z,28.20
2018-05-12T07:32:06.363Z,25.57
2018-05-12T07:34:33.890Z,27.03
2018-05-12T07:37:01.503Z,25.07
2018-05-12T07:39:29.063Z,27.43
2018-05-12T07:41:56.628Z,25.90
2018-05-12T07:44:25.001Z,23.97
2018-05-12T07:46:52.564Z,26.33
2018-05-12T07:49:20.100Z,23.90
2018-05-12T07:51:47.687Z,24.73
2018-05-12T07:54:15.322Z,25.43
2018-05-12T07:56:42.930Z,23.93
2018-05-12T07:59:11.417Z,25.17
2018-05-12T08:01:39.065Z,24.73
2018-05-12T08:04:06.613Z,23.83
2018-05-12T08:06:34.174Z,26.50
2018-05-12T08:09:01.761Z,22.93
2018-05-12T08:11:31.081Z,24.30
2018-05-12T08:13:58.708Z,24.33
2018-05-12T08:16:26.266Z,24.20
2018-05-12T08:18:53.801Z,22.70
2018-05-12T08:21:21.318Z,23.03
2018-05-12T08:23:48.854Z,23.10
2018-05-12T08:26:17.186Z,23.80
2018-05-12T08:28:44.769Z,22.93
2018-05-12T08:31:12.290Z,23.53
2018-05-12T08:33:40.614Z,23.23
2018-05-12T08:36:08.163Z,22.70
2018-05-12T08:38:35.693Z,23.70
2018-05-12T08:41:04.013Z,22.13
2018-05-12T08:43:31.526Z,21.47
2018-05-12T08:45:59.857Z,20.97
2018-05-12T08:48:27.379Z,23.33
2018-05-12T08:50:54.935Z,24.63
2018-05-12T08:53:22.732Z,23.63
2018-05-12T08:55:50.289Z,22.30
2018-05-12T08:58:18.090Z,22.27
2018-05-12T09:00:45.946Z,23.53
2018-05-12T09:03:13.618Z,25.13
2018-05-12T09:05:41.997Z,21.57
2018-05-12T09:08:09.518Z,21.23
2018-05-12T09:10:37.104Z,20.60
2018-05-12T09:13:04.628Z,20.87
2018-05-12T09:15:32.585Z,20.13
2018-05-12T09:18:00.129Z,21.17
2018-05-12T09:20:28.507Z,21.30
2018-05-12T09:22:56.809Z,19.17
2018-05-12T09:25:24.368Z,19.27
2018-05-12T09:27:52.621Z,19.43
2018-05-12T09:30:20.938Z,18.73
2018-05-12T09:32:48.470Z,18.40
2018-05-12T09:35:16.237Z,18.43
2018-05-12T09:37:43.767Z,19.00
2018-05-12T09:40:12.098Z,17.93
2018-05-12T09:42:39.770Z,17.50
2018-05-12T09:45:07.240Z,16.73
2018-05-12T09:47:34.806Z,16.17
2018-05-12T09:50:02.406Z,14.60
2018-05-12T09:52:29.970Z,14.97
2018-05-12T09:54:57.494Z,13.63
2018-05-12T09:57:25.049Z,14.63
2018-05-12T09:59:52.581Z,12.77
2018-05-12T10:02:20.149Z,12.40
2018-05-12T10:04:47.684Z,13.82
2018-05-12T10:07:15.222Z,13.40
2018-05-12T10:09:42.804Z,12.93
2018-05-12T10:12:10.332Z,14.15
2018-05-12T10:14:38.649Z,13.15
2018-05-12T10:17:06.198Z,14.23
2018-05-12T10:19:33.767Z,13.13
2018-05-12T10:22:01.295Z,15.65
2018-05-12T10:24:29.663Z,15.25
2018-05-12T10:26:57.977Z,15.18
2018-05-12T10:29:25.532Z,14.70
2018-05-12T10:31:54.475Z,15.00
2018-05-12T10:34:23.289Z,14.07
2018-05-12T10:36:51.010Z,10.88
2018-05-12T10:39:18.563Z,11.52
2018-05-12T10:41:46.094Z,7.30
2018-05-12T10:44:13.725Z,6.05
2018-05-12T10:46:42.029Z,7.90
2018-05-12T10:49:09.637Z,11.63
2018-05-12T10:51:37.239Z,10.98
2018-05-12T10:54:04.764Z,11.02
2018-05-12T10:56:32.690Z,10.95
2018-05-12T10:59:00.205Z,12.23
2018-05-12T11:01:27.977Z,14.40
2018-05-12T11:03:55.549Z,12.82
2018-05-12T11:06:23.091Z,11.65
2018-05-12T11:08:51.372Z,11.68
2018-05-12T11:11:19.697Z,11.52
2018-05-12T11:13:48.045Z,11.73
2018-05-12T11:16:15.731Z,11.32
2018-05-12T11:18:43.278Z,9.20
2018-05-12T11:21:10.863Z,8.57
2018-05-12T11:23:38.445Z,8.10
2018-05-12T11:26:06.166Z,7.22
2018-05-12T11:28:33.754Z,5.10
2018-05-12T11:31:01.526Z,4.53
2018-05-12T11:33:29.098Z,4.20
2018-05-12T11:35:56.968Z,3.90
2018-05-12T11:38:27.205Z,5.10
2018-05-12T11:40:55.506Z,4.90
2018-05-12T11:43:23.047Z,5.30
2018-05-12T11:45:51.354Z,5.65
2018-05-12T11:48:18.908Z,5.40
2018-05-12T11:50:46.530Z,5.07
2018-05-12T11:53:14.115Z,5.20
2018-05-12T11:55:42.430Z,4.90
2018-05-12T11:58:09.987Z,4.53
2018-05-12T12:00:37.632Z,4.60
2018-05-12T12:03:06.305Z,4.35
2018-05-12T12:05:34.097Z,4.97
2018-05-12T12:08:01.673Z,4.60
2018-05-12T12:10:29.302Z,4.60
2018-05-12T12:12:56.824Z,5.07
2018-05-12T12:15:25.107Z,5.60
2018-05-12T12:17:52.682Z,5.10
2018-05-12T12:20:20.222Z,4.80
2018-05-12T12:22:48.855Z,5.07
2018-05-12T12:25:16.383Z,4.87
2018-05-12T12:27:43.931Z,5.30
2018-05-12T12:30:12.259Z,5.60
2018-05-12T12:32:39.810Z,5.18
2018-05-12T12:35:07.314Z,5.60
2018-05-12T12:37:35.649Z,4.72
2018-05-12T12:40:03.778Z,3.80
2018-05-12T12:42:31.846Z,3.30
2018-05-12T12:45:00.207Z,3.25
2018-05-12T12:47:27.708Z,2.70
2018-05-12T12:49:56.018Z,2.20
2018-05-12T12:52:23.586Z,2.45
2018-05-12T12:54:51.146Z,2.50
2018-05-12T12:57:18.660Z,2.60
2018-05-12T12:59:46.206Z,2.55
2018-05-12T13:02:15.110Z,3.17
2018-05-12T13:04:42.676Z,3.17
2018-05-12T13:07:10.193Z,3.20
2018-05-12T13:09:37.744Z,3.25
2018-05-12T13:12:05.281Z,3.70
2018-05-12T13:14:32.871Z,2.65
2018-05-12T13:17:00.399Z,3.00
2018-05-12T13:19:27.942Z,3.20
2018-05-12T13:21:55.485Z,3.05
2018-05-12T13:24:23.086Z,3.78
2018-05-12T13:26:50.632Z,4.70
2018-05-12T13:29:18.998Z,4.82
2018-05-12T13:31:47.289Z,4.90
2018-05-12T13:34:14.806Z,5.45
2018-05-12T13:36:42.370Z,4.93
2018-05-12T13:39:10.672Z,3.97
2018-05-12T13:41:38.213Z,4.35
2018-05-12T13:44:06.218Z,4.12
2018-05-12T13:46:34.534Z,4.22
2018-05-12T13:49:02.066Z,4.22
2018-05-12T13:51:29.634Z,4.57
2018-05-12T13:53:57.205Z,4.68
2018-05-12T13:56:25.561Z,5.60
2018-05-12T13:58:53.103Z,5.47
2018-05-12T14:01:20.725Z,6.10
2018-05-12T14:03:49.838Z,4.93
2018-05-12T14:06:17.391Z,4.68
2018-05-12T14:08:45.724Z,4.97
2018-05-12T14:11:13.273Z,4.00
2018-05-12T14:13:40.826Z,3.22
2018-05-12T14:16:08.428Z,2.47
2018-05-12T14:18:35.901Z,1.87
2018-05-12T14:21:03.433Z,1.90
2018-05-12T14:23:30.993Z,1.92
2018-05-12T14:25:58.573Z,2.00
2018-05-12T14:28:26.884Z,1.98
2018-05-12T14:30:55.188Z,2.20
2018-05-12T14:33:22.752Z,1.90
2018-05-12T14:35:50.277Z,1.75
2018-05-12T14:38:18.663Z,1.45
2018-05-12T14:40:46.184Z,1.48
2018-05-12T14:43:14.496Z,1.50
2018-05-12T14:45:42.043Z,1.40
2018-05-12T14:48:10.350Z,1.45
2018-05-12T14:50:38.697Z,1.62
2018-05-12T14:53:06.227Z,1.87
2018-05-12T14:55:33.777Z,1.70
2018-05-12T14:58:01.353Z,1.98
2018-05-12T15:00:29.662Z,1.65
2018-05-12T15:02:58.011Z,1.60
2018-05-12T15:05:25.529Z,1.33
2018-05-12T15:07:53.916Z,1.30
2018-05-12T15:10:22.167Z,1.05
2018-05-12T15:12:49.734Z,1.58
2018-05-12T15:15:17.330Z,1.15
2018-05-12T15:17:44.865Z,1.30
2018-05-12T15:20:12.409Z,1.50
2018-05-12T15:22:40.042Z,1.52
2018-05-12T15:25:08.201Z,1.55
2018-05-12T15:27:35.687Z,1.20
2018-05-12T15:30:03.228Z,1.60
2018-05-12T15:32:32.455Z,1.40
2018-05-12T15:34:59.990Z,2.17
2018-05-12T15:37:27.541Z,2.00
2018-05-12T15:39:55.852Z,1.77
2018-05-12T15:42:24.153Z,2.03
2018-05-12T15:44:52.474Z,2.00
2018-05-12T15:47:20.818Z,2.12
2018-05-12T15:49:48.387Z,2.50
2018-05-12T15:52:15.938Z,2.67
2018-05-12T15:54:43.449Z,2.80
2018-05-12T15:57:11.035Z,2.60
2018-05-12T15:59:38.568Z,2.58
2018-05-12T16:02:06.871Z,2.83
2018-05-12T16:04:34.399Z,3.40
2018-05-12T16:07:01.933Z,2.53
2018-05-12T16:09:30.310Z,3.22
2018-05-12T16:11:58.605Z,2.72
2018-05-12T16:14:26.177Z,2.78
2018-05-12T16:16:53.792Z,2.42
2018-05-12T16:19:21.326Z,2.67
2018-05-12T16:21:48.836Z,2.12
2018-05-12T16:24:17.145Z,4.35
2018-05-12T16:26:44.665Z,3.12
2018-05-12T16:29:12.970Z,2.90
2018-05-12T16:31:40.591Z,3.50
2018-05-12T16:34:08.077Z,3.00
2018-05-12T16:36:36.393Z,2.80
2018-05-12T16:39:03.921Z,3.08
2018-05-12T16:41:31.461Z,2.83
2018-05-12T16:43:59.016Z,3.58
2018-05-12T16:46:27.351Z,3.60
2018-05-12T16:48:54.901Z,3.45
2018-05-12T16:51:22.439Z,3.37
2018-05-12T16:53:49.983Z,3.08
2018-05-12T16:56:17.545Z,3.20
2018-05-12T16:58:45.834Z,2.95
2018-05-12T17:01:13.361Z,2.85
2018-05-12T17:03:40.901Z,3.30
2018-05-12T17:06:09.213Z,3.22
2018-05-12T17:08:37.644Z,2.72
2018-05-12T17:11:05.551Z,3.20
2018-05-12T17:13:33.874Z,2.75
2018-05-12T17:16:01.404Z,2.70
2018-05-12T17:18:29.732Z,2.97
2018-05-12T17:20:57.262Z,3.37
2018-05-12T17:23:24.907Z,3.30
2018-05-12T17:25:52.361Z,3.30
2018-05-12T17:28:19.948Z,2.97
2018-05-12T17:30:47.506Z,3.30
2018-05-12T17:33:15.082Z,3.30
2018-05-12T17:35:43.565Z,3.30
2018-05-12T17:38:11.081Z,3.12
2018-05-12T17:40:39.437Z,3.20
2018-05-12T17:43:06.959Z,3.42
2018-05-12T17:45:34.506Z,3.60
2018-05-12T17:48:02.069Z,3.53
2018-05-12T17:50:29.613Z,3.60
2018-05-12T17:52:57.913Z,3.42
2018-05-12T17:55:25.461Z,3.67
2018-05-12T17:57:53.762Z,3.50
2018-05-12T18:00:22.289Z,3.47
2018-05-12T18:02:50.607Z,3.70
2018-05-12T18:05:18.159Z,3.47
2018-05-12T18:07:45.695Z,3.30
2018-05-12T18:10:13.218Z,3.60
2018-05-12T18:12:40.770Z,4.37
2018-05-12T18:15:08.277Z,5.00
2018-05-12T18:17:35.835Z,4.87
2018-05-12T18:20:04.136Z,4.60
2018-05-12T18:22:31.682Z,4.40
2018-05-12T18:24:59.197Z,4.70
2018-05-12T18:27:27.530Z,4.37
2018-05-12T18:29:55.045Z,4.60
2018-05-12T18:32:23.370Z,4.57
2018-05-12T18:34:50.933Z,5.13
2018-05-12T18:37:18.498Z,5.23
2018-05-12T18:39:46.024Z,6.23
2018-05-12T18:42:13.572Z,6.43
2018-05-12T18:44:41.909Z,6.43
2018-05-12T18:47:09.448Z,7.07
2018-05-12T18:49:36.978Z,6.73
2018-05-12T18:52:04.592Z,6.37
2018-05-12T18:54:32.136Z,6.33
2018-05-12T18:56:59.673Z,5.50
2018-05-12T18:59:27.973Z,4.90
2018-05-12T19:01:55.486Z,6.07
2018-05-12T19:04:23.805Z,5.20
2018-05-12T19:06:51.347Z,5.80
2018-05-12T19:09:18.926Z,6.80
2018-05-12T19:11:46.438Z,6.57
2018-05-12T19:14:14.780Z,6.47
2018-05-12T19:16:42.569Z,5.50
2018-05-12T19:19:10.885Z,5.13
2018-05-12T19:21:38.410Z,4.33
2018-05-12T19:24:05.925Z,4.50
2018-05-12T19:26:34.281Z,4.37
2018-05-12T19:29:01.884Z,3.90
2018-05-12T19:31:29.436Z,3.90
2018-05-12T19:33:56.961Z,4.30
2018-05-12T19:36:24.507Z,4.87
2018-05-12T19:38:52.285Z,4.60
2018-05-12T19:41:19.835Z,4.73
2018-05-12T19:43:47.411Z,4.33
2018-05-12T19:46:15.670Z,4.83
2018-05-12T19:48:43.981Z,4.80
2018-05-12T19:51:11.564Z,4.80
2018-05-12T19:53:39.119Z,4.83
2018-05-12T19:56:06.659Z,4.70
2018-05-12T19:58:34.196Z,5.03
2018-05-12T20:01:01.820Z,5.50
2018-05-12T20:03:30.126Z,5.40
2018-05-12T20:05:58.407Z,5.40
2018-05-12T20:08:25.942Z,5.83
2018-05-12T20:10:54.250Z,5.20
2018-05-12T20:13:21.796Z,6.20
2018-05-12T20:15:50.094Z,6.30
2018-05-12T20:18:18.373Z,5.67
2018-05-12T20:20:45.885Z,6.17
2018-05-12T20:23:13.887Z,5.70
2018-05-12T20:25:42.251Z,5.90
2018-05-12T20:28:09.827Z,5.90
2018-05-12T20:30:37.366Z,6.17
2018-05-12T20:33:05.651Z,6.30
2018-05-12T20:35:33.205Z,6.03
2018-05-12T20:38:00.727Z,5.93
2018-05-12T20:40:28.552Z,6.70
2018-05-12T20:42:56.074Z,5.97
2018-05-12T20:45:24.410Z,6.30
2018-05-12T20:47:51.925Z,6.20
2018-05-12T20:50:20.225Z,5.97
2018-05-12T20:52:47.753Z,6.87
2018-05-12T20:55:16.062Z,6.10
2018-05-12T21:00:23.325Z,6.67
2018-05-12T21:02:50.881Z,6.70
2018-05-12T21:05:18.458Z,6.57
2018-05-12T21:07:46.770Z,6.87
2018-05-12T21:10:14.279Z,7.10
2018-05-12T21:12:42.598Z,6.40
2018-05-12T21:15:10.147Z,6.53
2018-05-12T21:17:37.725Z,6.60
2018-05-12T21:20:05.433Z,7.07
2018-05-12T21:22:33.733Z,6.77
2018-05-12T21:25:01.284Z,6.53
2018-05-12T21:27:28.841Z,7.57
2018-05-12T21:29:57.131Z,7.83
2018-05-12T21:32:25.469Z,8.00
2018-05-12T21:34:53.121Z,7.03
2018-05-12T21:37:21.501Z,8.37
2018-05-12T21:39:49.035Z,7.40
2018-05-12T21:42:16.580Z,6.73
2018-05-12T21:44:44.094Z,7.70
2018-05-12T21:47:13.162Z,7.00
2018-05-12T21:49:40.674Z,7.07
2018-05-12T21:52:08.265Z,7.03
2018-05-12T21:54:35.834Z,6.77
2018-05-12T21:57:03.357Z,7.17
2018-05-12T21:59:30.911Z,6.60
2018-05-12T22:01:59.229Z,6.83
2018-05-12T22:04:27.441Z,6.83
2018-05-12T22:06:54.954Z,6.87
2018-05-12T22:09:22.485Z,7.10
2018-05-12T22:11:50.754Z,7.10
2018-05-12T22:14:19.064Z,7.20
2018-05-12T22:16:50.296Z,7.30
2018-05-12T22:19:17.837Z,7.20
2018-05-12T22:24:18.118Z,7.70
2018-05-12T22:26:45.741Z,7.67
2018-05-12T22:29:14.046Z,6.90
2018-05-12T22:31:41.553Z,6.77
2018-05-12T22:34:09.086Z,6.47
2018-05-12T22:36:36.595Z,6.93
2018-05-12T22:39:05.126Z,7.00
2018-05-12T22:41:32.663Z,7.30
2018-05-12T22:44:00.185Z,6.87
2018-05-12T22:46:27.741Z,7.03
2018-05-12T22:48:55.255Z,7.53
2018-05-12T22:51:22.790Z,7.07
2018-05-12T22:53:50.378Z,7.20
2018-05-12T22:56:17.938Z,7.13
2018-05-12T22:58:45.453Z,7.20
2018-05-12T23:01:16.086Z,7.50
2018-05-12T23:03:44.364Z,7.73
2018-05-12T23:06:12.654Z,6.87
2018-05-12T23:08:41.063Z,7.50
2018-05-12T23:11:08.630Z,7.10
2018-05-12T23:13:36.141Z,6.93
2018-05-12T23:16:04.431Z,6.90
2018-05-12T23:18:32.040Z,6.30
2018-05-12T23:21:00.262Z,5.80
2018-05-12T23:23:27.803Z,5.90
2018-05-12T23:25:55.321Z,5.83
2018-05-12T23:28:22.874Z,5.60
2018-05-12T23:30:50.411Z,5.77
2018-05-12T23:33:18.486Z,5.40
2018-05-12T23:35:45.997Z,5.30
2018-05-12T23:38:13.533Z,5.47
2018-05-12T23:40:41.832Z,5.07
2018-05-12T23:43:10.872Z,5.00
2018-05-12T23:45:38.399Z,5.10
2018-05-12T23:48:05.995Z,4.70
2018-05-12T23:50:33.499Z,5.03
2018-05-12T23:53:01.008Z,5.03
2018-05-12T23:55:28.553Z,5.67
2018-05-12T23:57:56.907Z,5.03
